createdAt,value
2023-04-07T00:00:37.117Z,389.00
2023-04-07T00:01:37.194Z,389.00
2023-04-07T00:02:37.318Z,388.00
2023-04-07T00:03:37.373Z,387.00
2023-04-07T00:04:37.370Z,388.00
2023-04-07T00:05:37.343Z,388.00
2023-04-07T00:06:37.412Z,390.00
2023-04-07T00:07:45.263Z,392.00
2023-04-07T00:08:38.443Z,393.00
2023-04-07T00:09:37.408Z,393.00
2023-04-07T00:10:37.431Z,394.00
2023-04-07T00:11:37.388Z,395.00
2023-04-07T00:12:37.385Z,393.00
2023-04-07T00:13:37.412Z,390.00
2023-04-07T00:14:37.409Z,392.00
2023-04-07T00:15:37.446Z,391.00
2023-04-07T00:16:37.423Z,391.00
2023-04-07T00:17:37.486Z,389.00
2023-04-07T00:18:37.436Z,388.00
2023-04-07T00:19:37.495Z,385.00
2023-04-07T00:20:37.571Z,385.00
2023-04-07T00:21:37.616Z,387.00
2023-04-07T00:22:37.700Z,385.00
2023-04-07T00:23:37.718Z,386.00
2023-04-07T00:24:37.789Z,388.00
2023-04-07T00:25:37.791Z,389.00
2023-04-07T00:26:37.832Z,390.00
2023-04-07T00:27:37.913Z,390.00
2023-04-07T00:28:37.952Z,391.00
2023-04-07T00:29:37.969Z,392.00
2023-04-07T00:30:38.034Z,393.00
2023-04-07T00:31:38.101Z,393.00
2023-04-07T00:32:38.263Z,392.00
2023-04-07T00:33:38.150Z,390.00
2023-04-07T00:34:38.182Z,388.00
2023-04-07T00:35:38.294Z,386.00
2023-04-07T00:36:38.276Z,385.00
2023-04-07T00:37:38.350Z,386.00
2023-04-07T00:38:38.397Z,389.00
2023-04-07T00:39:38.451Z,388.00
2023-04-07T00:40:38.547Z,388.00
2023-04-07T00:41:38.563Z,390.00
2023-04-07T00:42:38.644Z,390.00
2023-04-07T00:43:38.675Z,391.00
2023-04-07T00:44:38.708Z,391.00
2023-04-07T00:45:38.752Z,391.00
2023-04-07T00:46:38.823Z,389.00
2023-04-07T00:47:38.940Z,388.00
2023-04-07T00:48:38.878Z,387.00
2023-04-07T00:49:38.957Z,387.00
2023-04-07T00:50:38.943Z,388.00
2023-04-07T00:51:39.020Z,387.00
2023-04-07T00:52:39.110Z,386.00
2023-04-07T00:53:39.099Z,389.00
2023-04-07T00:54:39.163Z,389.00
2023-04-07T00:55:39.225Z,389.00
2023-04-07T00:56:39.283Z,389.00
2023-04-07T00:57:39.348Z,388.00
2023-04-07T00:58:39.349Z,387.00
2023-04-07T00:59:39.452Z,384.00
2023-04-07T01:00:39.467Z,382.00
2023-04-07T01:01:39.651Z,381.00
2023-04-07T01:02:39.806Z,381.00
2023-04-07T01:03:39.818Z,383.00
2023-04-07T01:04:39.813Z,382.00
2023-04-07T01:05:39.699Z,382.00
2023-04-07T01:06:39.748Z,381.00
2023-04-07T01:07:39.824Z,384.00
2023-04-07T01:08:39.821Z,385.00
2023-04-07T01:09:39.873Z,385.00
2023-04-07T01:10:39.946Z,386.00
2023-04-07T01:11:39.974Z,387.00
2023-04-07T01:12:40.047Z,385.00
2023-04-07T01:13:40.052Z,384.00
2023-04-07T01:14:40.110Z,383.00
2023-04-07T01:15:40.186Z,384.00
2023-04-07T01:16:40.258Z,384.00
2023-04-07T01:17:40.635Z,384.00
2023-04-07T01:18:40.346Z,386.00
2023-04-07T01:19:40.346Z,387.00
2023-04-07T01:20:40.478Z,388.00
2023-04-07T01:21:40.440Z,388.00
2023-04-07T01:22:40.531Z,387.00
2023-04-07T01:23:40.585Z,388.00
2023-04-07T01:24:40.656Z,390.00
2023-04-07T01:25:40.710Z,389.00
2023-04-07T01:26:40.717Z,390.00
2023-04-07T01:27:40.770Z,389.00
2023-04-07T01:28:40.813Z,388.00
2023-04-07T01:29:40.881Z,387.00
2023-04-07T01:30:40.930Z,385.00
2023-04-07T01:31:41.025Z,386.00
2023-04-07T01:32:41.027Z,384.00
2023-04-07T01:33:41.018Z,384.00
2023-04-07T01:34:41.133Z,388.00
2023-04-07T01:35:41.133Z,388.00
2023-04-07T01:36:41.165Z,387.00
2023-04-07T01:37:41.248Z,387.00
2023-04-07T01:38:41.261Z,387.00
2023-04-07T01:39:41.314Z,388.00
2023-04-07T01:40:41.344Z,391.00
2023-04-07T01:41:41.427Z,393.00
2023-04-07T01:42:41.422Z,391.00
2023-04-07T01:43:41.903Z,389.00
2023-04-07T01:44:41.538Z,386.00
2023-04-07T01:45:41.618Z,386.00
2023-04-07T01:46:41.620Z,387.00
2023-04-07T01:47:41.738Z,389.00
2023-04-07T01:48:41.670Z,389.00
2023-04-07T01:49:41.739Z,388.00
2023-04-07T01:50:41.852Z,388.00
2023-04-07T01:51:41.858Z,387.00
2023-04-07T01:52:41.907Z,385.00
2023-04-07T01:53:41.972Z,384.00
2023-04-07T01:54:41.992Z,381.00
2023-04-07T01:55:42.038Z,381.00
2023-04-07T01:56:42.139Z,383.00
2023-04-07T01:57:42.213Z,385.00
2023-04-07T01:58:42.227Z,385.00
2023-04-07T01:59:42.238Z,386.00
2023-04-07T02:00:42.302Z,384.00
2023-04-07T02:01:42.381Z,385.00
2023-04-07T02:02:42.561Z,384.00
2023-04-07T02:03:42.608Z,385.00
2023-04-07T02:04:42.458Z,383.00
2023-04-07T02:05:42.498Z,382.00
2023-04-07T02:06:42.590Z,384.00
2023-04-07T02:07:42.581Z,382.00
2023-04-07T02:08:42.630Z,380.00
2023-04-07T02:09:42.693Z,381.00
2023-04-07T02:10:42.753Z,382.00
2023-04-07T02:11:42.748Z,384.00
2023-04-07T02:12:42.820Z,382.00
2023-04-07T02:13:42.861Z,383.00
2023-04-07T02:14:42.951Z,381.00
2023-04-07T02:15:42.978Z,380.00
2023-04-07T02:16:43.115Z,382.00
2023-04-07T02:17:43.169Z,380.00
2023-04-07T02:18:43.173Z,377.00
2023-04-07T02:19:43.191Z,376.00
2023-04-07T02:20:43.185Z,377.00
2023-04-07T02:21:43.248Z,381.00
2023-04-07T02:22:43.348Z,380.00
2023-04-07T02:23:43.305Z,379.00
2023-04-07T02:24:43.354Z,379.00
2023-04-07T02:25:43.362Z,378.00
2023-04-07T02:26:43.435Z,378.00
2023-04-07T02:27:43.543Z,378.00
2023-04-07T02:28:43.552Z,376.00
2023-04-07T02:29:43.595Z,373.00
2023-04-07T02:30:43.663Z,374.00
2023-04-07T02:31:43.926Z,375.00
2023-04-07T02:32:43.752Z,376.00
2023-04-07T02:33:43.814Z,379.00
2023-04-07T02:34:43.836Z,379.00
2023-04-07T02:35:43.907Z,381.00
2023-04-07T02:36:43.976Z,380.00
2023-04-07T02:37:43.966Z,381.00
2023-04-07T02:38:43.964Z,382.00
2023-04-07T02:39:44.026Z,381.00
2023-04-07T02:40:44.159Z,381.00
2023-04-07T02:41:44.200Z,381.00
2023-04-07T02:42:44.205Z,384.00
2023-04-07T02:43:44.194Z,384.00
2023-04-07T02:44:44.273Z,384.00
2023-04-07T02:45:44.347Z,384.00
2023-04-07T02:46:44.388Z,382.00
2023-04-07T02:47:44.420Z,381.00
2023-04-07T02:48:44.389Z,380.00
2023-04-07T02:49:44.444Z,379.00
2023-04-07T02:50:44.505Z,380.00
2023-04-07T02:51:44.584Z,381.00
2023-04-07T02:52:44.565Z,380.00
2023-04-07T02:53:44.634Z,377.00
2023-04-07T02:54:44.766Z,376.00
2023-04-07T02:55:44.826Z,373.00
2023-04-07T02:56:44.760Z,372.00
2023-04-07T02:57:44.812Z,370.00
2023-04-07T02:58:44.810Z,371.00
2023-04-07T02:59:44.982Z,371.00
2023-04-07T03:00:44.935Z,370.00
2023-04-07T03:01:45.065Z,370.00
2023-04-07T03:02:45.250Z,372.00
2023-04-07T03:03:45.337Z,374.00
2023-04-07T03:04:45.196Z,375.00
2023-04-07T03:05:45.123Z,372.00
2023-04-07T03:06:45.146Z,370.00
2023-04-07T03:07:45.233Z,369.00
2023-04-07T03:08:45.248Z,369.00
2023-04-07T03:09:45.249Z,370.00
2023-04-07T03:10:45.293Z,374.00
2023-04-07T03:11:45.471Z,375.00
2023-04-07T03:12:45.383Z,374.00
2023-04-07T03:13:45.462Z,374.00
2023-04-07T03:14:45.497Z,376.00
2023-04-07T03:15:45.511Z,377.00
2023-04-07T03:16:45.602Z,375.00
2023-04-07T03:17:45.646Z,374.00
2023-04-07T03:18:45.620Z,372.00
2023-04-07T03:19:45.755Z,374.00
2023-04-07T03:20:45.743Z,375.00
2023-04-07T03:21:45.780Z,376.00
2023-04-07T03:22:45.852Z,376.00
2023-04-07T03:23:45.870Z,374.00
2023-04-07T03:24:45.881Z,373.00
2023-04-07T03:25:47.575Z,370.00
2023-04-07T03:26:45.923Z,370.00
2023-04-07T03:27:45.882Z,372.00
2023-04-07T03:28:45.862Z,372.00
2023-04-07T03:29:45.899Z,373.00
2023-04-07T03:30:45.943Z,372.00
2023-04-07T03:31:45.954Z,370.00
2023-04-07T03:32:45.895Z,371.00
2023-04-07T03:33:45.908Z,371.00
2023-04-07T03:34:45.880Z,373.00
2023-04-07T03:35:45.849Z,374.00
2023-04-07T03:36:45.861Z,377.00
2023-04-07T03:37:45.818Z,378.00
2023-04-07T03:38:45.868Z,376.00
2023-04-07T03:39:45.879Z,378.00
2023-04-07T03:40:45.803Z,379.00
2023-04-07T03:41:45.778Z,377.00
2023-04-07T03:42:45.830Z,375.00
2023-04-07T03:43:45.816Z,376.00
2023-04-07T03:44:45.819Z,377.00
2023-04-07T03:45:45.876Z,377.00
2023-04-07T03:46:45.937Z,377.00
2023-04-07T03:47:45.909Z,376.00
2023-04-07T03:48:45.776Z,376.00
2023-04-07T03:49:45.776Z,376.00
2023-04-07T03:50:45.790Z,379.00
2023-04-07T03:51:45.766Z,379.00
2023-04-07T03:52:45.722Z,377.00
2023-04-07T03:53:45.771Z,375.00
2023-04-07T03:54:45.780Z,372.00
2023-04-07T03:55:45.766Z,370.00
2023-04-07T03:56:45.723Z,369.00
2023-04-07T03:57:45.693Z,368.00
2023-04-07T03:58:45.705Z,367.00
2023-04-07T03:59:45.720Z,368.00
2023-04-07T04:00:45.706Z,368.00
2023-04-07T04:01:45.722Z,366.00
2023-04-07T04:02:45.787Z,368.00
2023-04-07T04:03:45.824Z,371.00
2023-04-07T04:04:45.766Z,372.00
2023-04-07T04:05:45.667Z,374.00
2023-04-07T04:06:45.715Z,376.00
2023-04-07T04:07:45.653Z,376.00
2023-04-07T04:08:45.671Z,379.00
2023-04-07T04:09:45.642Z,380.00
2023-04-07T04:10:45.653Z,381.00
2023-04-07T04:11:45.656Z,383.00
2023-04-07T04:12:45.625Z,382.00
2023-04-07T04:13:45.603Z,379.00
2023-04-07T04:14:45.637Z,378.00
2023-04-07T04:15:45.649Z,379.00
2023-04-07T04:16:45.598Z,381.00
2023-04-07T04:17:45.556Z,379.00
2023-04-07T04:18:45.696Z,380.00
2023-04-07T04:19:45.665Z,384.00
2023-04-07T04:20:45.739Z,386.00
2023-04-07T04:21:45.765Z,386.00
2023-04-07T04:22:45.829Z,386.00
2023-04-07T04:23:45.869Z,384.00
2023-04-07T04:24:45.876Z,385.00
2023-04-07T04:25:45.995Z,386.00
2023-04-07T04:26:46.056Z,386.00
2023-04-07T04:27:45.996Z,386.00
2023-04-07T04:28:46.105Z,387.00
2023-04-07T04:29:46.149Z,388.00
2023-04-07T04:30:46.171Z,389.00
2023-04-07T04:31:46.250Z,388.00
2023-04-07T04:32:46.264Z,387.00
2023-04-07T04:33:46.315Z,384.00
2023-04-07T04:34:46.368Z,382.00
2023-04-07T04:35:47.385Z,382.00
2023-04-07T04:36:46.470Z,381.00
2023-04-07T04:37:46.490Z,380.00
2023-04-07T04:38:46.561Z,379.00
2023-04-07T04:39:46.563Z,377.00
2023-04-07T04:40:46.562Z,378.00
2023-04-07T04:41:46.617Z,376.00
2023-04-07T04:42:46.620Z,375.00
2023-04-07T04:43:47.892Z,373.00
2023-04-07T04:44:46.730Z,376.00
2023-04-07T04:45:46.743Z,378.00
2023-04-07T04:46:46.842Z,378.00
2023-04-07T04:47:46.869Z,381.00
2023-04-07T04:48:46.856Z,382.00
2023-04-07T04:49:46.855Z,381.00
2023-04-07T04:50:46.937Z,381.00
2023-04-07T04:51:46.992Z,380.00
2023-04-07T04:52:46.996Z,379.00
2023-04-07T04:53:47.097Z,380.00
2023-04-07T04:54:47.067Z,382.00
2023-04-07T04:55:47.106Z,379.00
2023-04-07T04:56:47.125Z,378.00
2023-04-07T04:57:47.193Z,379.00
2023-04-07T04:58:47.235Z,379.00
2023-04-07T04:59:47.253Z,377.00
2023-04-07T05:00:47.743Z,376.00
2023-04-07T05:01:48.112Z,378.00
2023-04-07T05:02:47.485Z,378.00
2023-04-07T05:03:47.643Z,377.00
2023-04-07T05:04:47.555Z,378.00
2023-04-07T05:05:47.488Z,377.00
2023-04-07T05:06:47.526Z,377.00
2023-04-07T05:07:47.566Z,376.00
2023-04-07T05:08:47.579Z,377.00
2023-04-07T05:09:47.644Z,377.00
2023-04-07T05:10:47.804Z,376.00
2023-04-07T05:11:47.691Z,376.00
2023-04-07T05:12:47.693Z,375.00
2023-04-07T05:13:47.763Z,377.00
2023-04-07T05:14:47.769Z,379.00
2023-04-07T05:15:47.913Z,377.00
2023-04-07T05:16:47.882Z,376.00
2023-04-07T05:17:47.885Z,376.00
2023-04-07T05:18:47.946Z,377.00
2023-04-07T05:19:47.991Z,374.00
2023-04-07T05:20:48.000Z,375.00
2023-04-07T05:21:48.074Z,376.00
2023-04-07T05:22:48.103Z,374.00
2023-04-07T05:23:48.150Z,373.00
2023-04-07T05:24:48.299Z,375.00
2023-04-07T05:25:48.251Z,377.00
2023-04-07T05:26:48.315Z,378.00
2023-04-07T05:27:48.317Z,379.00
2023-04-07T05:28:48.338Z,380.00
2023-04-07T05:29:48.361Z,381.00
2023-04-07T05:30:48.433Z,382.00
2023-04-07T05:31:48.499Z,382.00
2023-04-07T05:32:48.633Z,382.00
2023-04-07T05:33:48.952Z,381.00
2023-04-07T05:34:48.640Z,382.00
2023-04-07T05:35:48.718Z,384.00
2023-04-07T05:36:48.719Z,385.00
2023-04-07T05:37:48.734Z,387.00
2023-04-07T05:38:48.771Z,387.00
2023-04-07T05:39:48.857Z,386.00
2023-04-07T05:40:48.954Z,387.00
2023-04-07T05:41:48.973Z,387.00
2023-04-07T05:42:49.027Z,389.00
2023-04-07T05:43:49.247Z,388.00
2023-04-07T05:44:49.045Z,387.00
2023-04-07T05:45:49.119Z,387.00
2023-04-07T05:46:49.138Z,388.00
2023-04-07T05:47:49.230Z,388.00
2023-04-07T05:48:49.215Z,389.00
2023-04-07T05:49:49.253Z,390.00
2023-04-07T05:50:49.339Z,389.00
2023-04-07T05:51:49.475Z,388.00
2023-04-07T05:52:49.415Z,388.00
2023-04-07T05:53:49.590Z,387.00
2023-04-07T05:54:49.526Z,385.00
2023-04-07T05:55:49.588Z,384.00
2023-04-07T05:56:49.576Z,383.00
2023-04-07T05:57:49.646Z,382.00
2023-04-07T05:58:49.768Z,381.00
2023-04-07T05:59:49.700Z,382.00
2023-04-07T06:00:49.777Z,383.00
2023-04-07T06:01:49.887Z,386.00
2023-04-07T06:02:50.170Z,385.00
2023-04-07T06:03:50.095Z,388.00
2023-04-07T06:04:49.992Z,390.00
2023-04-07T06:05:50.023Z,392.00
2023-04-07T06:06:50.053Z,393.00
2023-04-07T06:07:50.073Z,392.00
2023-04-07T06:08:50.130Z,391.00
2023-04-07T06:09:50.176Z,391.00
2023-04-07T06:10:50.183Z,387.00
2023-04-07T06:11:50.305Z,385.00
2023-04-07T06:12:50.269Z,385.00
2023-04-07T06:13:50.604Z,385.00
2023-04-07T06:14:50.356Z,384.00
2023-04-07T06:15:50.429Z,384.00
2023-04-07T06:16:50.499Z,383.00
2023-04-07T06:17:50.540Z,384.00
2023-04-07T06:18:50.541Z,383.00
2023-04-07T06:19:50.569Z,384.00
2023-04-07T06:20:50.587Z,384.00
2023-04-07T06:21:50.625Z,384.00
2023-04-07T06:22:50.673Z,384.00
2023-04-07T06:23:51.186Z,386.00
2023-04-07T06:24:50.798Z,387.00
2023-04-07T06:25:50.800Z,387.00
2023-04-07T06:26:50.831Z,386.00
2023-04-07T06:27:50.902Z,384.00
2023-04-07T06:28:50.926Z,384.00
2023-04-07T06:29:50.947Z,384.00
2023-04-07T06:30:51.098Z,384.00
2023-04-07T06:31:51.030Z,385.00
2023-04-07T06:32:51.185Z,384.00
2023-04-07T06:33:51.499Z,385.00
2023-04-07T06:34:51.174Z,384.00
2023-04-07T06:35:51.196Z,384.00
2023-04-07T06:36:51.262Z,386.00
2023-04-07T06:37:51.360Z,387.00
2023-04-07T06:38:51.357Z,388.00
2023-04-07T06:39:51.369Z,390.00
2023-04-07T06:40:51.413Z,390.00
2023-04-07T06:41:51.409Z,391.00
2023-04-07T06:42:51.489Z,393.00
2023-04-07T06:43:51.543Z,393.00
2023-04-07T06:44:51.562Z,394.00
2023-04-07T06:45:51.621Z,393.00
2023-04-07T06:46:51.622Z,394.00
2023-04-07T06:47:51.715Z,393.00
2023-04-07T06:48:51.675Z,392.00
2023-04-07T06:49:51.775Z,392.00
2023-04-07T06:50:51.848Z,390.00
2023-04-07T06:51:51.803Z,388.00
2023-04-07T06:52:51.842Z,391.00
2023-04-07T06:53:51.853Z,391.00
2023-04-07T06:54:51.921Z,391.00
2023-04-07T06:55:51.920Z,391.00
2023-04-07T06:56:53.631Z,391.00
2023-04-07T06:57:52.201Z,391.00
2023-04-07T06:58:52.245Z,390.00
2023-04-07T06:59:52.328Z,390.00
2023-04-07T07:00:52.321Z,390.00
2023-04-07T07:01:52.411Z,391.00
2023-04-07T07:02:52.562Z,394.00
2023-04-07T07:03:52.835Z,394.00
2023-04-07T07:04:52.458Z,396.00
2023-04-07T07:05:52.499Z,396.00
2023-04-07T07:06:52.509Z,394.00
2023-04-07T07:07:52.589Z,393.00
2023-04-07T07:08:52.587Z,392.00
2023-04-07T07:09:52.625Z,392.00
2023-04-07T07:10:52.651Z,392.00
2023-04-07T07:11:52.675Z,393.00
2023-04-07T07:12:52.683Z,393.00
2023-04-07T07:13:52.728Z,392.00
2023-04-07T07:14:52.758Z,389.00
2023-04-07T07:15:52.949Z,390.00
2023-04-07T07:16:52.852Z,390.00
2023-04-07T07:17:52.905Z,390.00
2023-04-07T07:18:52.911Z,390.00
2023-04-07T07:19:52.907Z,391.00
2023-04-07T07:20:52.981Z,391.00
2023-04-07T07:21:52.977Z,394.00
2023-04-07T07:22:53.053Z,394.00
2023-04-07T07:23:53.052Z,392.00
2023-04-07T07:24:53.113Z,392.00
2023-04-07T07:25:53.127Z,391.00
2023-04-07T07:26:53.178Z,393.00
2023-04-07T07:27:53.178Z,392.00
2023-04-07T07:28:53.246Z,392.00
2023-04-07T07:29:53.214Z,393.00
2023-04-07T07:30:53.319Z,394.00
2023-04-07T07:31:54.425Z,396.00
2023-04-07T07:32:53.316Z,395.00
2023-04-07T07:33:53.378Z,394.00
2023-04-07T07:34:53.376Z,392.00
2023-04-07T07:35:53.469Z,390.00
2023-04-07T07:36:53.472Z,391.00
2023-04-07T07:37:53.792Z,394.00
2023-04-07T07:38:53.507Z,395.00
2023-04-07T07:39:53.558Z,396.00
2023-04-07T07:40:53.562Z,395.00
2023-04-07T07:41:53.564Z,394.00
2023-04-07T07:42:53.561Z,395.00
2023-04-07T07:43:53.654Z,394.00
2023-04-07T07:44:53.655Z,395.00
2023-04-07T07:45:53.651Z,394.00
2023-04-07T07:46:53.737Z,394.00
2023-04-07T07:47:53.757Z,397.00
2023-04-07T07:48:53.778Z,398.00
2023-04-07T07:49:53.783Z,396.00
2023-04-07T07:50:53.795Z,395.00
2023-04-07T07:51:53.801Z,394.00
2023-04-07T07:52:53.871Z,393.00
2023-04-07T07:53:53.851Z,393.00
2023-04-07T07:54:53.927Z,392.00
2023-04-07T07:55:53.936Z,392.00
2023-04-07T07:56:53.958Z,392.00
2023-04-07T07:57:53.951Z,394.00
2023-04-07T07:58:53.988Z,393.00
2023-04-07T07:59:53.969Z,391.00
2023-04-07T08:00:53.995Z,390.00
2023-04-07T08:01:54.025Z,392.00
2023-04-07T08:02:54.069Z,393.00
2023-04-07T08:03:54.603Z,394.00
2023-04-07T08:04:54.066Z,393.00
2023-04-07T08:05:54.107Z,396.00
2023-04-07T08:06:54.114Z,397.00
2023-04-07T08:07:54.797Z,397.00
2023-04-07T08:08:54.129Z,397.00
2023-04-07T08:09:54.106Z,397.00
2023-04-07T08:10:54.144Z,398.00
2023-04-07T08:11:54.164Z,397.00
2023-04-07T08:12:54.168Z,396.00
2023-04-07T08:13:54.187Z,395.00
2023-04-07T08:14:54.208Z,394.00
2023-04-07T08:15:54.208Z,395.00
2023-04-07T08:16:54.184Z,395.00
2023-04-07T08:17:56.072Z,396.00
2023-04-07T08:18:54.233Z,397.00
2023-04-07T08:19:54.244Z,396.00
2023-04-07T08:20:54.197Z,394.00
2023-04-07T08:21:54.245Z,394.00
2023-04-07T08:22:54.207Z,393.00
2023-04-07T08:23:54.225Z,394.00
2023-04-07T08:24:54.220Z,393.00
2023-04-07T08:25:54.236Z,393.00
2023-04-07T08:26:54.248Z,396.00
2023-04-07T08:27:54.230Z,396.00
2023-04-07T08:28:54.264Z,397.00
2023-04-07T08:29:54.264Z,397.00
2023-04-07T08:30:54.223Z,397.00
2023-04-07T08:31:54.272Z,397.00
2023-04-07T08:32:54.335Z,397.00
2023-04-07T08:33:54.243Z,395.00
2023-04-07T08:34:54.237Z,394.00
2023-04-07T08:35:54.289Z,393.00
2023-04-07T08:36:54.254Z,391.00
2023-04-07T08:37:54.262Z,392.00
2023-04-07T08:38:54.229Z,391.00
2023-04-07T08:39:54.269Z,390.00
2023-04-07T08:40:54.232Z,391.00
2023-04-07T08:41:54.242Z,390.00
2023-04-07T08:42:54.245Z,389.00
2023-04-07T08:43:54.216Z,391.00
2023-04-07T08:44:54.228Z,392.00
2023-04-07T08:45:54.270Z,393.00
2023-04-07T08:46:54.260Z,392.00
2023-04-07T08:47:54.255Z,390.00
2023-04-07T08:48:54.229Z,389.00
2023-04-07T08:49:54.232Z,388.00
2023-04-07T08:50:54.167Z,389.00
2023-04-07T08:51:54.199Z,391.00
2023-04-07T08:52:54.238Z,391.00
2023-04-07T08:53:54.180Z,388.00
2023-04-07T08:54:54.189Z,388.00
2023-04-07T08:55:54.191Z,390.00
2023-04-07T08:56:54.247Z,391.00
2023-04-07T08:57:54.252Z,390.00
2023-04-07T08:58:54.257Z,390.00
2023-04-07T08:59:54.314Z,387.00
2023-04-07T09:00:54.389Z,385.00
2023-04-07T09:01:54.332Z,387.00
2023-04-07T09:02:54.373Z,388.00
2023-04-07T09:03:54.542Z,386.00
2023-04-07T09:04:54.344Z,384.00
2023-04-07T09:05:54.415Z,383.00
2023-04-07T09:06:54.459Z,382.00
2023-04-07T09:07:54.461Z,383.00
2023-04-07T09:08:55.274Z,381.00
2023-04-07T09:09:54.531Z,380.00
2023-04-07T09:10:54.584Z,381.00
2023-04-07T09:11:54.653Z,382.00
2023-04-07T09:12:54.669Z,384.00
2023-04-07T09:13:54.693Z,385.00
2023-04-07T09:14:54.775Z,386.00
2023-04-07T09:15:54.814Z,386.00
2023-04-07T09:16:54.924Z,386.00
2023-04-07T09:17:54.964Z,385.00
2023-04-07T09:18:55.007Z,385.00
2023-04-07T09:19:55.058Z,383.00
2023-04-07T09:20:55.117Z,383.00
2023-04-07T09:21:55.157Z,384.00
2023-04-07T09:22:55.229Z,385.00
2023-04-07T09:23:55.271Z,385.00
2023-04-07T09:24:55.389Z,385.00
2023-04-07T09:25:55.396Z,385.00
2023-04-07T09:26:55.477Z,385.00
2023-04-07T09:27:55.518Z,385.00
2023-04-07T09:28:55.701Z,385.00
2023-04-07T09:29:55.696Z,383.00
2023-04-07T09:30:55.711Z,387.00
2023-04-07T09:31:55.868Z,385.00
2023-04-07T09:32:55.963Z,386.00
2023-04-07T09:33:55.920Z,383.00
2023-04-07T09:34:55.974Z,381.00
2023-04-07T09:35:56.060Z,380.00
2023-04-07T09:36:56.045Z,380.00
2023-04-07T09:37:56.152Z,379.00
2023-04-07T09:38:56.262Z,380.00
2023-04-07T09:39:56.279Z,381.00
2023-04-07T09:40:56.599Z,382.00
2023-04-07T09:41:56.390Z,381.00
2023-04-07T09:42:56.444Z,380.00
2023-04-07T09:43:56.554Z,382.00
2023-04-07T09:44:56.616Z,382.00
2023-04-07T09:45:56.710Z,382.00
2023-04-07T09:46:56.769Z,381.00
2023-04-07T09:47:56.789Z,381.00
2023-04-07T09:48:56.839Z,380.00
2023-04-07T09:49:56.895Z,380.00
2023-04-07T09:50:56.953Z,378.00
2023-04-07T09:51:56.998Z,379.00
2023-04-07T09:52:57.074Z,380.00
2023-04-07T09:53:57.129Z,380.00
2023-04-07T09:54:57.204Z,382.00
2023-04-07T09:55:57.244Z,382.00
2023-04-07T09:56:57.303Z,382.00
2023-04-07T09:57:57.425Z,383.00
2023-04-07T09:58:57.492Z,383.00
2023-04-07T09:59:57.509Z,385.00
2023-04-07T10:00:57.607Z,383.00
2023-04-07T10:01:57.765Z,382.00
2023-04-07T10:02:57.969Z,380.00
2023-04-07T10:03:57.799Z,379.00
2023-04-07T10:04:57.820Z,376.00
2023-04-07T10:05:57.832Z,380.00
2023-04-07T10:06:57.893Z,381.00
2023-04-07T10:07:58.011Z,382.00
2023-04-07T10:08:58.022Z,384.00
2023-04-07T10:09:58.120Z,383.00
2023-04-07T10:10:58.182Z,382.00
2023-04-07T10:11:58.166Z,382.00
2023-04-07T10:12:58.299Z,381.00
2023-04-07T10:13:58.280Z,380.00
2023-04-07T10:14:58.405Z,380.00
2023-04-07T10:15:58.426Z,379.00
2023-04-07T10:16:58.498Z,380.00
2023-04-07T10:17:58.656Z,382.00
2023-04-07T10:18:58.603Z,383.00
2023-04-07T10:19:58.632Z,383.00
2023-04-07T10:20:58.712Z,385.00
2023-04-07T10:21:58.746Z,386.00
2023-04-07T10:22:58.827Z,385.00
2023-04-07T10:23:58.871Z,384.00
2023-04-07T10:24:58.999Z,382.00
2023-04-07T10:25:58.981Z,382.00
2023-04-07T10:26:58.989Z,384.00
2023-04-07T10:27:59.123Z,381.00
2023-04-07T10:28:59.126Z,379.00
2023-04-07T10:29:59.178Z,378.00
2023-04-07T10:30:59.275Z,377.00
2023-04-07T10:31:59.295Z,376.00
2023-04-07T10:32:59.423Z,376.00
2023-04-07T10:33:59.424Z,375.00
2023-04-07T10:34:59.520Z,374.00
2023-04-07T10:35:59.838Z,374.00
2023-04-07T10:36:59.550Z,376.00
2023-04-07T10:37:59.564Z,374.00
2023-04-07T10:38:59.655Z,373.00
2023-04-07T10:39:59.661Z,372.00
2023-04-07T10:40:59.701Z,372.00
2023-04-07T10:41:59.767Z,372.00
2023-04-07T10:42:59.830Z,374.00
2023-04-07T10:43:59.867Z,374.00
2023-04-07T10:44:59.901Z,375.00
2023-04-07T10:46:00.183Z,376.00
2023-04-07T10:47:00.026Z,376.00
2023-04-07T10:48:00.096Z,375.00
2023-04-07T10:49:00.137Z,373.00
2023-04-07T10:50:00.144Z,373.00
2023-04-07T10:51:00.188Z,373.00
2023-04-07T10:52:00.254Z,369.00
2023-04-07T10:53:00.311Z,367.00
2023-04-07T10:54:00.372Z,367.00
2023-04-07T10:55:00.364Z,367.00
2023-04-07T10:56:00.445Z,366.00
2023-04-07T10:57:00.499Z,367.00
2023-04-07T10:58:00.537Z,369.00
2023-04-07T10:59:00.604Z,367.00
2023-04-07T11:00:00.588Z,365.00
2023-04-07T11:01:00.685Z,366.00
2023-04-07T11:02:00.820Z,368.00
2023-04-07T11:03:00.985Z,367.00
2023-04-07T11:04:01.013Z,365.00
2023-04-07T11:05:00.896Z,363.00
2023-04-07T11:06:00.971Z,365.00
2023-04-07T11:07:01.026Z,366.00
2023-04-07T11:08:01.020Z,369.00
2023-04-07T11:09:01.081Z,369.00
2023-04-07T11:10:01.136Z,369.00
2023-04-07T11:11:01.193Z,369.00
2023-04-07T11:12:01.244Z,368.00
2023-04-07T11:13:01.275Z,371.00
2023-04-07T11:14:01.328Z,372.00
2023-04-07T11:15:01.383Z,370.00
2023-04-07T11:16:01.545Z,369.00
2023-04-07T11:17:01.512Z,369.00
2023-04-07T11:18:01.606Z,369.00
2023-04-07T11:19:01.639Z,368.00
2023-04-07T11:20:01.663Z,366.00
2023-04-07T11:21:01.687Z,366.00
2023-04-07T11:22:01.886Z,365.00
2023-04-07T11:23:01.800Z,365.00
2023-04-07T11:24:01.970Z,365.00
2023-04-07T11:25:01.906Z,369.00
2023-04-07T11:26:02.015Z,370.00
2023-04-07T11:27:02.028Z,371.00
2023-04-07T11:28:02.040Z,371.00
2023-04-07T11:29:02.093Z,372.00
2023-04-07T11:30:02.154Z,371.00
2023-04-07T11:31:02.299Z,370.00
2023-04-07T11:32:02.300Z,369.00
2023-04-07T11:33:02.346Z,368.00
2023-04-07T11:34:02.386Z,367.00
2023-04-07T11:35:02.394Z,366.00
2023-04-07T11:36:03.393Z,366.00
2023-04-07T11:37:02.589Z,365.00
2023-04-07T11:38:02.611Z,363.00
2023-04-07T11:39:02.614Z,363.00
2023-04-07T11:40:02.681Z,363.00
2023-04-07T11:41:02.749Z,360.00
2023-04-07T11:42:02.792Z,361.00
2023-04-07T11:43:02.858Z,358.00
2023-04-07T11:44:02.896Z,357.00
2023-04-07T11:45:02.960Z,357.00
2023-04-07T11:46:02.985Z,358.00
2023-04-07T11:47:03.126Z,360.00
2023-04-07T11:48:03.117Z,361.00
2023-04-07T11:49:03.136Z,360.00
2023-04-07T11:50:03.204Z,361.00
2023-04-07T11:51:03.473Z,362.00
2023-04-07T11:52:03.494Z,362.00
2023-04-07T11:53:03.391Z,361.00
2023-04-07T11:54:03.451Z,359.00
2023-04-07T11:55:03.489Z,358.00
2023-04-07T11:56:03.556Z,360.00
2023-04-07T11:57:03.570Z,360.00
2023-04-07T11:58:03.605Z,360.00
2023-04-07T11:59:03.650Z,360.00
2023-04-07T12:00:03.736Z,359.00
2023-04-07T12:01:03.765Z,358.00
2023-04-07T12:02:03.898Z,355.00
2023-04-07T12:03:04.089Z,353.00
2023-04-07T12:04:04.357Z,351.00
2023-04-07T12:05:04.058Z,350.00
2023-04-07T12:06:04.075Z,351.00
2023-04-07T12:07:04.080Z,352.00
2023-04-07T12:08:04.207Z,353.00
2023-04-07T12:09:04.194Z,353.00
2023-04-07T12:10:04.276Z,354.00
2023-04-07T12:11:04.325Z,355.00
2023-04-07T12:12:04.535Z,355.00
2023-04-07T12:13:04.433Z,356.00
2023-04-07T12:14:04.557Z,356.00
2023-04-07T12:15:04.553Z,355.00
2023-04-07T12:16:05.443Z,355.00
2023-04-07T12:17:04.704Z,357.00
2023-04-07T12:18:04.699Z,357.00
2023-04-07T12:19:04.712Z,360.00
2023-04-07T12:20:04.815Z,361.00
2023-04-07T12:21:04.811Z,362.00
2023-04-07T12:22:04.874Z,361.00
2023-04-07T12:23:04.908Z,358.00
2023-04-07T12:24:05.329Z,357.00
2023-04-07T12:25:04.983Z,358.00
2023-04-07T12:26:05.035Z,357.00
2023-04-07T12:27:05.085Z,356.00
2023-04-07T12:28:05.151Z,356.00
2023-04-07T12:29:05.234Z,357.00